Skip Navigation Links Skip Navigation Links

Current Weather

Piedmont Triad International, Greensboro, N.C.

For information only: do not use for flight planning or navigation.
Latest weather
Observation time Wednesday, February 20, 2019 12:47 PM EST
Local time Wednesday, February 20, 2019 12:58 PM EST
Flight conditions Low Instrument Meteorological Conditions
Winds
Wind direction North-Northeast (20°)
Wind speed 8 mph
Visibility 1.25 mi.
Present weather light drizzle, mist
Sky condition
Ceiling 400 ft. overcast
Cloud layer overcast 400 ft.
Temperature 34°F
Dewpoint 34°F
Altimeter 30.29 in.Hg
Derived measurements
Relative humidity 100%
Wind chill 27°F
Density altitude -1108 ft.
Remarks
Special weather observation.
METAR SPUS81 KWBC 201751 SPECI KGSO 201747Z 02007KT 1 1/4SM R05R/6000VP6000FT -DZ BR OVC004 01/01 A3029

Settings

Location code

InnerDrive.Weather 4.0.6770.0 Release CLR 4.0.30319.42000
Copyright ©2018 Inner Drive Technology. All rights reserved. Portions Copyright ©1986-2018 David Braverman.

Find weather

Site navigation


Skip Navigation Links

Place info

Page info

PayPal - The safer, easier way to pay online!

Return home.

Copyright ©2019 Inner Drive Technology. Purveyors of fine, hand-crafted computer software. Page printed 2019-02-20T17:58:18 UTC.